sensor_id;sensor_type;location;lat;lon;timestamp;P1;durP1;ratioP1;P2;durP2;ratioP2
42802;SDS011;28447;48.682;9.022;2023-04-06T04:01:40;22.10;;;10.63;;
42802;SDS011;28447;48.682;9.022;2023-04-06T04:04:06;16.10;;;10.90;;
42802;SDS011;28447;48.682;9.022;2023-04-06T04:06:32;23.13;;;10.60;;
42802;SDS011;28447;48.682;9.022;2023-04-06T04:08:58;19.20;;;10.50;;
42802;SDS011;28447;48.682;9.022;2023-04-06T04:11:24;20.43;;;11.30;;
42802;SDS011;28447;48.682;9.022;2023-04-06T04:13:50;20.97;;;11.17;;
42802;SDS011;28447;48.682;9.022;2023-04-06T04:16:16;20.40;;;12.50;;
42802;SDS011;28447;48.682;9.022;2023-04-06T04:18:42;22.37;;;11.00;;
42802;SDS011;28447;48.682;9.022;2023-04-06T04:21:08;25.07;;;12.03;;
42802;SDS011;28447;48.682;9.022;2023-04-06T04:23:34;18.40;;;10.43;;
42802;SDS011;28447;48.682;9.022;2023-04-06T04:26:00;17.63;;;11.20;;
42802;SDS011;28447;48.682;9.022;2023-04-06T04:28:27;18.60;;;10.63;;
42802;SDS011;28447;48.682;9.022;2023-04-06T04:30:53;18.70;;;10.97;;
42802;SDS011;28447;48.682;9.022;2023-04-06T04:33:19;20.23;;;10.73;;
42802;SDS011;28447;48.682;9.022;2023-04-06T04:35:45;23.00;;;11.40;;
42802;SDS011;28447;48.682;9.022;2023-04-06T04:38:11;17.03;;;10.40;;
42802;SDS011;28447;48.682;9.022;2023-04-06T04:40:37;19.57;;;10.40;;
42802;SDS011;28447;48.682;9.022;2023-04-06T04:43:03;20.43;;;11.77;;
42802;SDS011;28447;48.682;9.022;2023-04-06T04:45:29;16.27;;;9.60;;
42802;SDS011;28447;48.682;9.022;2023-04-06T04:47:55;19.43;;;10.20;;
42802;SDS011;28447;48.682;9.022;2023-04-06T04:50:21;18.87;;;11.20;;
42802;SDS011;28447;48.682;9.022;2023-04-06T04:52:47;19.90;;;10.03;;
42802;SDS011;28447;48.682;9.022;2023-04-06T04:55:14;24.33;;;11.47;;
42802;SDS011;28447;48.682;9.022;2023-04-06T04:57:40;18.37;;;10.17;;
42802;SDS011;28447;48.682;9.022;2023-04-06T05:00:06;18.10;;;11.83;;
42802;SDS011;28447;48.682;9.022;2023-04-06T05:02:32;21.30;;;11.60;;
42802;SDS011;28447;48.682;9.022;2023-04-06T05:04:58;18.73;;;11.30;;
42802;SDS011;28447;48.682;9.022;2023-04-06T05:07:25;18.87;;;11.13;;
42802;SDS011;28447;48.682;9.022;2023-04-06T05:09:51;19.10;;;10.40;;
42802;SDS011;28447;48.682;9.022;2023-04-06T05:12:17;18.20;;;10.40;;
42802;SDS011;28447;48.682;9.022;2023-04-06T05:14:43;18.30;;;10.70;;
42802;SDS011;28447;48.682;9.022;2023-04-06T05:17:10;21.43;;;12.07;;
42802;SDS011;28447;48.682;9.022;2023-04-06T05:19:36;21.00;;;12.33;;
42802;SDS011;28447;48.682;9.022;2023-04-06T05:22:02;21.07;;;11.40;;
42802;SDS011;28447;48.682;9.022;2023-04-06T05:24:28;21.33;;;11.30;;
42802;SDS011;28447;48.682;9.022;2023-04-06T05:26:54;28.07;;;12.30;;
42802;SDS011;28447;48.682;9.022;2023-04-06T05:29:20;26.83;;;11.50;;
42802;SDS011;28447;48.682;9.022;2023-04-06T05:31:46;22.13;;;11.80;;
42802;SDS011;28447;48.682;9.022;2023-04-06T05:34:12;23.63;;;11.20;;
42802;SDS011;28447;48.682;9.022;2023-04-06T05:36:38;18.50;;;11.30;;
42802;SDS011;28447;48.682;9.022;2023-04-06T05:39:05;22.07;;;12.33;;
42802;SDS011;28447;48.682;9.022;2023-04-06T05:41:32;19.27;;;11.70;;
42802;SDS011;28447;48.682;9.022;2023-04-06T05:43:58;24.20;;;12.37;;
42802;SDS011;28447;48.682;9.022;2023-04-06T05:46:24;24.97;;;12.20;;
42802;SDS011;28447;48.682;9.022;2023-04-06T05:48:50;20.20;;;11.30;;
42802;SDS011;28447;48.682;9.022;2023-04-06T05:51:16;19.90;;;12.43;;
42802;SDS011;28447;48.682;9.022;2023-04-06T05:53:42;21.60;;;12.67;;
42802;SDS011;28447;48.682;9.022;2023-04-06T05:56:08;28.60;;;12.70;;
42802;SDS011;28447;48.682;9.022;2023-04-06T05:58:34;22.30;;;12.30;;
42802;SDS011;28447;48.682;9.022;2023-04-06T06:01:01;19.07;;;12.43;;
42802;SDS011;28447;48.682;9.022;2023-04-06T06:03:28;20.37;;;12.30;;
42802;SDS011;28447;48.682;9.022;2023-04-06T06:05:59;18.33;;;11.80;;
42802;SDS011;28447;48.682;9.022;2023-04-06T06:08:25;20.73;;;12.60;;
42802;SDS011;28447;48.682;9.022;2023-04-06T06:10:51;19.63;;;11.60;;
42802;SDS011;28447;48.682;9.022;2023-04-06T06:13:17;24.30;;;13.03;;
42802;SDS011;28447;48.682;9.022;2023-04-06T06:15:43;19.60;;;12.60;;
42802;SDS011;28447;48.682;9.022;2023-04-06T06:18:09;18.37;;;12.00;;
42802;SDS011;28447;48.682;9.022;2023-04-06T06:20:35;21.20;;;12.63;;
42802;SDS011;28447;48.682;9.022;2023-04-06T06:23:02;19.93;;;12.73;;
42802;SDS011;28447;48.682;9.022;2023-04-06T06:25:28;19.73;;;13.00;;
42802;SDS011;28447;48.682;9.022;2023-04-06T06:27:55;26.30;;;16.53;;
42802;SDS011;28447;48.682;9.022;2023-04-06T06:30:21;29.70;;;16.73;;
42802;SDS011;28447;48.682;9.022;2023-04-06T06:32:47;20.83;;;13.63;;
42802;SDS011;28447;48.682;9.022;2023-04-06T06:35:13;18.20;;;12.60;;
42802;SDS011;28447;48.682;9.022;2023-04-06T06:37:39;20.37;;;12.33;;
42802;SDS011;28447;48.682;9.022;2023-04-06T06:40:09;18.33;;;11.87;;
42802;SDS011;28447;48.682;9.022;2023-04-06T06:42:38;17.77;;;12.40;;
42802;SDS011;28447;48.682;9.022;2023-04-06T06:45:04;20.97;;;11.97;;
42802;SDS011;28447;48.682;9.022;2023-04-06T06:47:30;14.03;;;11.17;;
42802;SDS011;28447;48.682;9.022;2023-04-06T06:49:56;21.80;;;11.70;;
42802;SDS011;28447;48.682;9.022;2023-04-06T06:52:22;21.10;;;13.63;;
42802;SDS011;28447;48.682;9.022;2023-04-06T06:54:49;19.53;;;12.53;;
42802;SDS011;28447;48.682;9.022;2023-04-06T06:57:14;16.97;;;12.00;;
42802;SDS011;28447;48.682;9.022;2023-04-06T06:59:40;17.47;;;12.17;;
42802;SDS011;28447;48.682;9.022;2023-04-06T07:02:06;17.93;;;12.00;;
42802;SDS011;28447;48.682;9.022;2023-04-06T07:04:32;14.07;;;10.97;;
42802;SDS011;28447;48.682;9.022;2023-04-06T07:06:58;18.13;;;12.77;;
42802;SDS011;28447;48.682;9.022;2023-04-06T07:09:23;17.40;;;11.33;;
42802;SDS011;28447;48.682;9.022;2023-04-06T07:11:51;17.97;;;12.17;;
42802;SDS011;28447;48.682;9.022;2023-04-06T07:14:16;17.30;;;13.70;;
42802;SDS011;28447;48.682;9.022;2023-04-06T07:16:42;15.07;;;10.90;;
42802;SDS011;28447;48.682;9.022;2023-04-06T07:19:10;18.53;;;11.80;;
42802;SDS011;28447;48.682;9.022;2023-04-06T07:21:36;17.60;;;12.00;;
42802;SDS011;28447;48.682;9.022;2023-04-06T07:24:01;23.10;;;11.73;;
42802;SDS011;28447;48.682;9.022;2023-04-06T07:26:27;18.23;;;10.87;;
42802;SDS011;28447;48.682;9.022;2023-04-06T07:28:53;15.87;;;11.03;;
42802;SDS011;28447;48.682;9.022;2023-04-06T07:31:19;16.47;;;11.53;;
42802;SDS011;28447;48.682;9.022;2023-04-06T07:33:45;17.77;;;12.00;;
42802;SDS011;28447;48.682;9.022;2023-04-06T07:36:12;16.00;;;11.17;;
42802;SDS011;28447;48.682;9.022;2023-04-06T07:38:37;17.03;;;11.60;;
42802;SDS011;28447;48.682;9.022;2023-04-06T07:41:03;20.67;;;11.10;;
42802;SDS011;28447;48.682;9.022;2023-04-06T07:43:29;21.10;;;12.13;;
42802;SDS011;28447;48.682;9.022;2023-04-06T07:45:55;14.47;;;10.10;;
42802;SDS011;28447;48.682;9.022;2023-04-06T07:48:22;18.67;;;10.93;;
42802;SDS011;28447;48.682;9.022;2023-04-06T07:50:48;14.87;;;10.03;;
42802;SDS011;28447;48.682;9.022;2023-04-06T07:53:14;17.83;;;10.90;;
42802;SDS011;28447;48.682;9.022;2023-04-06T07:55:40;18.00;;;11.80;;
42802;SDS011;28447;48.682;9.022;2023-04-06T07:58:05;21.40;;;11.40;;
42802;SDS011;28447;48.682;9.022;2023-04-06T08:00:31;16.77;;;12.00;;
42802;SDS011;28447;48.682;9.022;2023-04-06T08:02:57;16.93;;;11.10;;
42802;SDS011;28447;48.682;9.022;2023-04-06T08:05:23;18.80;;;12.80;;
42802;SDS011;28447;48.682;9.022;2023-04-06T08:07:49;14.23;;;10.70;;
42802;SDS011;28447;48.682;9.022;2023-04-06T08:10:15;16.50;;;11.90;;
42802;SDS011;28447;48.682;9.022;2023-04-06T08:12:41;14.40;;;10.97;;
42802;SDS011;28447;48.682;9.022;2023-04-06T08:15:07;15.63;;;11.17;;
42802;SDS011;28447;48.682;9.022;2023-04-06T08:17:33;14.87;;;11.20;;
42802;SDS011;28447;48.682;9.022;2023-04-06T08:20:00;15.13;;;11.10;;
42802;SDS011;28447;48.682;9.022;2023-04-06T08:22:25;16.33;;;11.00;;
42802;SDS011;28447;48.682;9.022;2023-04-06T08:24:51;17.30;;;11.20;;
42802;SDS011;28447;48.682;9.022;2023-04-06T08:27:17;13.67;;;10.30;;
42802;SDS011;28447;48.682;9.022;2023-04-06T08:29:43;15.37;;;10.63;;
42802;SDS011;28447;48.682;9.022;2023-04-06T08:32:09;16.10;;;10.70;;
42802;SDS011;28447;48.682;9.022;2023-04-06T08:34:35;16.70;;;11.13;;
42802;SDS011;28447;48.682;9.022;2023-04-06T08:37:01;16.70;;;10.20;;
42802;SDS011;28447;48.682;9.022;2023-04-06T08:39:27;15.47;;;10.93;;
42802;SDS011;28447;48.682;9.022;2023-04-06T08:41:55;15.37;;;10.70;;
42802;SDS011;28447;48.682;9.022;2023-04-06T08:44:22;13.53;;;10.27;;
42802;SDS011;28447;48.682;9.022;2023-04-06T08:46:48;17.67;;;10.20;;
42802;SDS011;28447;48.682;9.022;2023-04-06T08:49:15;16.90;;;11.77;;
42802;SDS011;28447;48.682;9.022;2023-04-06T08:51:42;14.30;;;10.77;;
42802;SDS011;28447;48.682;9.022;2023-04-06T08:54:08;15.30;;;10.50;;
42802;SDS011;28447;48.682;9.022;2023-04-06T08:56:37;13.83;;;8.90;;
42802;SDS011;28447;48.682;9.022;2023-04-06T08:59:03;16.03;;;8.43;;
42802;SDS011;28447;48.682;9.022;2023-04-06T09:01:30;13.20;;;9.70;;
42802;SDS011;28447;48.682;9.022;2023-04-06T09:03:58;15.80;;;8.60;;
42802;SDS011;28447;48.682;9.022;2023-04-06T09:06:25;14.30;;;8.93;;
42802;SDS011;28447;48.682;9.022;2023-04-06T09:08:52;12.73;;;8.20;;
42802;SDS011;28447;48.682;9.022;2023-04-06T09:11:18;8.03;;;7.00;;
42802;SDS011;28447;48.682;9.022;2023-04-06T09:13:51;10.53;;;7.93;;
42802;SDS011;28447;48.682;9.022;2023-04-06T09:16:19;11.40;;;8.43;;
42802;SDS011;28447;48.682;9.022;2023-04-06T09:18:46;16.90;;;9.80;;
42802;SDS011;28447;48.682;9.022;2023-04-06T09:21:12;12.07;;;8.70;;
42802;SDS011;28447;48.682;9.022;2023-04-06T09:23:41;16.57;;;8.93;;
42802;SDS011;28447;48.682;9.022;2023-04-06T09:26:18;14.47;;;8.50;;
42802;SDS011;28447;48.682;9.022;2023-04-06T09:31:32;12.60;;;7.90;;
42802;SDS011;28447;48.682;9.022;2023-04-06T09:33:58;8.30;;;6.80;;
42802;SDS011;28447;48.682;9.022;2023-04-06T09:36:35;12.77;;;7.93;;
42802;SDS011;28447;48.682;9.022;2023-04-06T09:39:06;9.90;;;8.17;;
42802;SDS011;28447;48.682;9.022;2023-04-06T09:41:33;11.33;;;9.87;;
42802;SDS011;28447;48.682;9.022;2023-04-06T09:46:33;12.20;;;9.27;;
42802;SDS011;28447;48.682;9.022;2023-04-06T09:49:03;10.73;;;8.17;;
42802;SDS011;28447;48.682;9.022;2023-04-06T09:51:30;12.10;;;8.60;;
42802;SDS011;28447;48.682;9.022;2023-04-06T09:54:00;12.07;;;8.37;;
42802;SDS011;28447;48.682;9.022;2023-04-06T09:56:30;10.37;;;7.40;;
42802;SDS011;28447;48.682;9.022;2023-04-06T09:59:01;10.00;;;7.07;;
42802;SDS011;28447;48.682;9.022;2023-04-06T10:01:29;10.10;;;7.40;;
42802;SDS011;28447;48.682;9.022;2023-04-06T10:06:31;11.03;;;8.83;;
42802;SDS011;28447;48.682;9.022;2023-04-06T10:09:00;9.90;;;7.97;;
42802;SDS011;28447;48.682;9.022;2023-04-06T10:11:28;11.27;;;8.60;;
42802;SDS011;28447;48.682;9.022;2023-04-06T10:13:54;11.10;;;8.10;;
42802;SDS011;28447;48.682;9.022;2023-04-06T10:16:21;13.10;;;9.07;;
42802;SDS011;28447;48.682;9.022;2023-04-06T10:18:50;10.40;;;8.77;;
42802;SDS011;28447;48.682;9.022;2023-04-06T10:21:22;8.00;;;7.20;;
42802;SDS011;28447;48.682;9.022;2023-04-06T10:23:52;9.97;;;7.23;;
42802;SDS011;28447;48.682;9.022;2023-04-06T10:26:20;9.07;;;7.53;;
42802;SDS011;28447;48.682;9.022;2023-04-06T10:28:47;10.63;;;7.83;;
42802;SDS011;28447;48.682;9.022;2023-04-06T10:31:14;12.20;;;8.30;;
42802;SDS011;28447;48.682;9.022;2023-04-06T10:33:40;9.93;;;8.33;;
42802;SDS011;28447;48.682;9.022;2023-04-06T10:36:10;9.97;;;8.00;;
42802;SDS011;28447;48.682;9.022;2023-04-06T10:38:40;8.70;;;7.80;;
42802;SDS011;28447;48.682;9.022;2023-04-06T10:41:10;9.67;;;8.03;;
42802;SDS011;28447;48.682;9.022;2023-04-06T10:43:37;11.00;;;8.87;;
42802;SDS011;28447;48.682;9.022;2023-04-06T10:46:06;8.30;;;7.40;;
42802;SDS011;28447;48.682;9.022;2023-04-06T10:48:39;9.90;;;8.03;;
42802;SDS011;28447;48.682;9.022;2023-04-06T10:51:12;9.50;;;7.43;;
42802;SDS011;28447;48.682;9.022;2023-04-06T10:53:40;11.17;;;8.37;;
42802;SDS011;28447;48.682;9.022;2023-04-06T10:56:12;9.63;;;7.73;;
42802;SDS011;28447;48.682;9.022;2023-04-06T10:58:48;8.87;;;7.50;;
42802;SDS011;28447;48.682;9.022;2023-04-06T11:01:18;11.07;;;8.47;;
42802;SDS011;28447;48.682;9.022;2023-04-06T11:03:45;10.17;;;7.53;;
42802;SDS011;28447;48.682;9.022;2023-04-06T11:06:22;13.30;;;8.73;;
42802;SDS011;28447;48.682;9.022;2023-04-06T11:08:50;8.90;;;7.63;;
42802;SDS011;28447;48.682;9.022;2023-04-06T11:11:17;10.30;;;8.00;;
42802;SDS011;28447;48.682;9.022;2023-04-06T11:13:54;8.77;;;7.20;;
42802;SDS011;28447;48.682;9.022;2023-04-06T11:16:24;9.60;;;7.87;;
42802;SDS011;28447;48.682;9.022;2023-04-06T11:21:34;10.40;;;8.37;;
42802;SDS011;28447;48.682;9.022;2023-04-06T11:26:36;9.40;;;8.40;;
42802;SDS011;28447;48.682;9.022;2023-04-06T11:29:03;10.57;;;8.10;;
42802;SDS011;28447;48.682;9.022;2023-04-06T11:31:30;11.50;;;8.57;;
42802;SDS011;28447;48.682;9.022;2023-04-06T11:33:56;9.37;;;8.37;;
42802;SDS011;28447;48.682;9.022;2023-04-06T11:36:22;11.90;;;8.20;;
42802;SDS011;28447;48.682;9.022;2023-04-06T11:38:47;11.63;;;8.07;;
42802;SDS011;28447;48.682;9.022;2023-04-06T11:41:13;11.40;;;7.77;;
42802;SDS011;28447;48.682;9.022;2023-04-06T11:43:39;9.10;;;8.10;;
42802;SDS011;28447;48.682;9.022;2023-04-06T11:46:16;8.73;;;7.40;;
42802;SDS011;28447;48.682;9.022;2023-04-06T11:48:44;10.30;;;7.33;;
42802;SDS011;28447;48.682;9.022;2023-04-06T11:51:11;11.13;;;8.00;;
42802;SDS011;28447;48.682;9.022;2023-04-06T11:53:43;9.53;;;7.93;;
42802;SDS011;28447;48.682;9.022;2023-04-06T11:56:22;7.90;;;7.07;;
42802;SDS011;28447;48.682;9.022;2023-04-06T11:58:49;10.27;;;8.50;;
42802;SDS011;28447;48.682;9.022;2023-04-06T12:01:15;9.77;;;7.87;;
42802;SDS011;28447;48.682;9.022;2023-04-06T12:03:40;10.23;;;8.63;;
42802;SDS011;28447;48.682;9.022;2023-04-06T12:06:06;10.13;;;8.90;;
42802;SDS011;28447;48.682;9.022;2023-04-06T12:08:32;12.63;;;8.90;;
42802;SDS011;28447;48.682;9.022;2023-04-06T12:10:57;9.20;;;7.73;;
42802;SDS011;28447;48.682;9.022;2023-04-06T12:13:24;12.20;;;8.37;;
42802;SDS011;28447;48.682;9.022;2023-04-06T12:15:50;13.30;;;10.23;;
42802;SDS011;28447;48.682;9.022;2023-04-06T12:18:16;12.13;;;9.43;;
42802;SDS011;28447;48.682;9.022;2023-04-06T12:20:41;11.83;;;9.13;;
42802;SDS011;28447;48.682;9.022;2023-04-06T12:23:07;10.30;;;9.20;;
42802;SDS011;28447;48.682;9.022;2023-04-06T12:25:33;9.60;;;8.60;;
42802;SDS011;28447;48.682;9.022;2023-04-06T12:27:58;10.83;;;9.37;;
42802;SDS011;28447;48.682;9.022;2023-04-06T12:30:24;11.40;;;10.20;;
42802;SDS011;28447;48.682;9.022;2023-04-06T12:32:50;11.23;;;9.03;;
42802;SDS011;28447;48.682;9.022;2023-04-06T12:35:16;11.67;;;9.33;;
42802;SDS011;28447;48.682;9.022;2023-04-06T12:37:42;11.57;;;9.10;;
42802;SDS011;28447;48.682;9.022;2023-04-06T12:40:07;12.50;;;10.23;;
42802;SDS011;28447;48.682;9.022;2023-04-06T12:42:35;10.40;;;8.90;;
42802;SDS011;28447;48.682;9.022;2023-04-06T12:45:01;9.77;;;8.17;;
42802;SDS011;28447;48.682;9.022;2023-04-06T12:47:27;11.83;;;9.27;;
42802;SDS011;28447;48.682;9.022;2023-04-06T12:49:53;11.77;;;10.03;;
42802;SDS011;28447;48.682;9.022;2023-04-06T12:52:19;10.23;;;8.57;;
42802;SDS011;28447;48.682;9.022;2023-04-06T12:54:45;12.27;;;9.63;;
42802;SDS011;28447;48.682;9.022;2023-04-06T12:57:12;9.20;;;8.00;;
42802;SDS011;28447;48.682;9.022;2023-04-06T12:59:37;10.10;;;8.53;;
42802;SDS011;28447;48.682;9.022;2023-04-06T13:02:03;10.80;;;8.33;;
42802;SDS011;28447;48.682;9.022;2023-04-06T13:04:29;8.93;;;8.03;;
42802;SDS011;28447;48.682;9.022;2023-04-06T13:06:55;13.20;;;8.80;;
42802;SDS011;28447;48.682;9.022;2023-04-06T13:09:22;9.57;;;8.43;;
42802;SDS011;28447;48.682;9.022;2023-04-06T13:11:47;10.40;;;8.00;;
42802;SDS011;28447;48.682;9.022;2023-04-06T13:14:13;11.20;;;8.27;;
42802;SDS011;28447;48.682;9.022;2023-04-06T13:16:39;8.80;;;7.80;;
42802;SDS011;28447;48.682;9.022;2023-04-06T13:19:05;9.53;;;8.40;;
42802;SDS011;28447;48.682;9.022;2023-04-06T13:21:31;10.40;;;8.20;;
42802;SDS011;28447;48.682;9.022;2023-04-06T13:23:57;9.20;;;7.50;;
42802;SDS011;28447;48.682;9.022;2023-04-06T13:26:22;10.27;;;8.40;;
42802;SDS011;28447;48.682;9.022;2023-04-06T13:28:48;12.13;;;8.13;;
42802;SDS011;28447;48.682;9.022;2023-04-06T13:31:14;11.10;;;8.77;;
42802;SDS011;28447;48.682;9.022;2023-04-06T13:33:40;11.53;;;8.10;;
42802;SDS011;28447;48.682;9.022;2023-04-06T13:36:06;11.20;;;8.80;;
42802;SDS011;28447;48.682;9.022;2023-04-06T13:38:32;8.73;;;7.83;;
42802;SDS011;28447;48.682;9.022;2023-04-06T13:40:58;8.53;;;7.20;;
42802;SDS011;28447;48.682;9.022;2023-04-06T13:43:24;9.00;;;8.10;;
42802;SDS011;28447;48.682;9.022;2023-04-06T13:45:54;9.40;;;7.40;;
42802;SDS011;28447;48.682;9.022;2023-04-06T13:48:20;11.23;;;8.50;;
42802;SDS011;28447;48.682;9.022;2023-04-06T13:50:46;12.17;;;8.60;;
42802;SDS011;28447;48.682;9.022;2023-04-06T13:53:12;9.30;;;7.57;;
42802;SDS011;28447;48.682;9.022;2023-04-06T13:55:38;12.40;;;8.57;;
42802;SDS011;28447;48.682;9.022;2023-04-06T13:58:04;9.47;;;8.47;;
42802;SDS011;28447;48.682;9.022;2023-04-06T14:00:29;7.50;;;6.80;;
42802;SDS011;28447;48.682;9.022;2023-04-06T14:02:55;8.10;;;7.30;;
42802;SDS011;28447;48.682;9.022;2023-04-06T14:05:21;8.80;;;7.27;;
42802;SDS011;28447;48.682;9.022;2023-04-06T14:07:48;8.50;;;7.37;;
42802;SDS011;28447;48.682;9.022;2023-04-06T14:10:14;8.67;;;7.77;;
42802;SDS011;28447;48.682;9.022;2023-04-06T14:12:41;8.90;;;8.00;;
42802;SDS011;28447;48.682;9.022;2023-04-06T14:15:07;9.17;;;7.77;;
42802;SDS011;28447;48.682;9.022;2023-04-06T14:17:34;9.63;;;8.00;;
42802;SDS011;28447;48.682;9.022;2023-04-06T14:19:59;9.70;;;8.30;;
42802;SDS011;28447;48.682;9.022;2023-04-06T14:22:25;9.37;;;8.40;;
42802;SDS011;28447;48.682;9.022;2023-04-06T14:24:51;10.37;;;7.90;;
42802;SDS011;28447;48.682;9.022;2023-04-06T14:27:16;10.37;;;8.60;;
42802;SDS011;28447;48.682;9.022;2023-04-06T14:29:42;8.60;;;7.30;;
42802;SDS011;28447;48.682;9.022;2023-04-06T14:32:07;11.23;;;8.80;;
42802;SDS011;28447;48.682;9.022;2023-04-06T14:34:33;9.60;;;8.40;;
42802;SDS011;28447;48.682;9.022;2023-04-06T14:37:02;12.87;;;8.93;;
42802;SDS011;28447;48.682;9.022;2023-04-06T14:39:28;10.00;;;8.10;;
42802;SDS011;28447;48.682;9.022;2023-04-06T14:41:53;10.57;;;8.10;;
42802;SDS011;28447;48.682;9.022;2023-04-06T14:44:19;11.63;;;8.80;;
42802;SDS011;28447;48.682;9.022;2023-04-06T14:46:45;8.70;;;7.60;;
42802;SDS011;28447;48.682;9.022;2023-04-06T14:49:11;8.97;;;7.70;;
42802;SDS011;28447;48.682;9.022;2023-04-06T14:51:37;11.30;;;7.70;;
42802;SDS011;28447;48.682;9.022;2023-04-06T14:54:03;10.27;;;8.20;;
42802;SDS011;28447;48.682;9.022;2023-04-06T14:56:28;8.83;;;7.53;;
42802;SDS011;28447;48.682;9.022;2023-04-06T14:58:56;9.57;;;7.10;;
42802;SDS011;28447;48.682;9.022;2023-04-06T15:01:28;12.03;;;8.30;;
42802;SDS011;28447;48.682;9.022;2023-04-06T15:03:54;12.00;;;7.80;;
42802;SDS011;28447;48.682;9.022;2023-04-06T15:06:20;11.60;;;7.60;;
42802;SDS011;28447;48.682;9.022;2023-04-06T15:08:46;9.83;;;7.80;;
42802;SDS011;28447;48.682;9.022;2023-04-06T15:11:13;10.37;;;8.17;;
42802;SDS011;28447;48.682;9.022;2023-04-06T15:13:39;13.03;;;8.00;;
42802;SDS011;28447;48.682;9.022;2023-04-06T15:16:06;14.50;;;8.53;;
42802;SDS011;28447;48.682;9.022;2023-04-06T15:18:35;8.87;;;7.60;;
42802;SDS011;28447;48.682;9.022;2023-04-06T15:21:01;10.20;;;7.80;;
42802;SDS011;28447;48.682;9.022;2023-04-06T15:23:27;10.23;;;7.10;;
42802;SDS011;28447;48.682;9.022;2023-04-06T15:25:54;11.20;;;7.87;;
42802;SDS011;28447;48.682;9.022;2023-04-06T15:28:20;10.50;;;8.10;;
42802;SDS011;28447;48.682;9.022;2023-04-06T15:30:46;9.37;;;6.97;;
42802;SDS011;28447;48.682;9.022;2023-04-06T15:33:12;9.53;;;8.23;;
42802;SDS011;28447;48.682;9.022;2023-04-06T15:35:37;10.23;;;7.80;;
42802;SDS011;28447;48.682;9.022;2023-04-06T15:38:07;13.07;;;9.17;;
42802;SDS011;28447;48.682;9.022;2023-04-06T15:40:46;11.37;;;8.53;;
42802;SDS011;28447;48.682;9.022;2023-04-06T15:43:14;11.37;;;8.70;;
42802;SDS011;28447;48.682;9.022;2023-04-06T15:45:41;12.37;;;8.60;;
42802;SDS011;28447;48.682;9.022;2023-04-06T15:48:06;10.30;;;7.70;;
42802;SDS011;28447;48.682;9.022;2023-04-06T15:50:33;12.93;;;8.70;;
42802;SDS011;28447;48.682;9.022;2023-04-06T15:52:59;12.30;;;7.43;;
42802;SDS011;28447;48.682;9.022;2023-04-06T15:55:25;11.23;;;8.40;;
42802;SDS011;28447;48.682;9.022;2023-04-06T15:57:50;10.27;;;8.00;;
42802;SDS011;28447;48.682;9.022;2023-04-06T16:00:16;11.33;;;7.87;;
42802;SDS011;28447;48.682;9.022;2023-04-06T16:02:42;12.83;;;8.00;;
42802;SDS011;28447;48.682;9.022;2023-04-06T16:05:08;9.10;;;7.97;;
42802;SDS011;28447;48.682;9.022;2023-04-06T16:07:34;12.70;;;7.30;;
42802;SDS011;28447;48.682;9.022;2023-04-06T16:10:00;9.53;;;7.50;;
42802;SDS011;28447;48.682;9.022;2023-04-06T16:12:26;10.00;;;8.20;;
42802;SDS011;28447;48.682;9.022;2023-04-06T16:14:51;11.13;;;8.70;;
42802;SDS011;28447;48.682;9.022;2023-04-06T16:17:17;12.97;;;7.90;;
42802;SDS011;28447;48.682;9.022;2023-04-06T16:19:43;12.27;;;8.30;;
42802;SDS011;28447;48.682;9.022;2023-04-06T16:22:09;13.10;;;8.80;;
42802;SDS011;28447;48.682;9.022;2023-04-06T16:24:34;13.80;;;9.67;;
42802;SDS011;28447;48.682;9.022;2023-04-06T16:27:00;13.73;;;8.57;;
42802;SDS011;28447;48.682;9.022;2023-04-06T16:29:27;16.43;;;8.97;;
42802;SDS011;28447;48.682;9.022;2023-04-06T16:31:53;14.20;;;9.80;;
42802;SDS011;28447;48.682;9.022;2023-04-06T16:34:19;17.10;;;10.00;;
42802;SDS011;28447;48.682;9.022;2023-04-06T16:36:45;16.77;;;10.27;;
42802;SDS011;28447;48.682;9.022;2023-04-06T16:39:11;12.77;;;9.30;;
42802;SDS011;28447;48.682;9.022;2023-04-06T16:41:37;10.97;;;8.50;;
42802;SDS011;28447;48.682;9.022;2023-04-06T16:44:04;12.47;;;9.27;;
42802;SDS011;28447;48.682;9.022;2023-04-06T16:46:30;13.00;;;9.67;;
42802;SDS011;28447;48.682;9.022;2023-04-06T16:48:58;16.50;;;8.90;;
42802;SDS011;28447;48.682;9.022;2023-04-06T16:51:23;13.20;;;9.80;;
42802;SDS011;28447;48.682;9.022;2023-04-06T16:53:51;15.30;;;10.80;;
42802;SDS011;28447;48.682;9.022;2023-04-06T16:56:17;16.27;;;10.83;;
42802;SDS011;28447;48.682;9.022;2023-04-06T16:58:42;14.40;;;9.90;;
42802;SDS011;28447;48.682;9.022;2023-04-06T17:01:16;13.27;;;9.67;;
42802;SDS011;28447;48.682;9.022;2023-04-06T17:03:43;14.67;;;9.33;;
42802;SDS011;28447;48.682;9.022;2023-04-06T17:06:10;10.23;;;8.20;;
42802;SDS011;28447;48.682;9.022;2023-04-06T17:08:35;12.20;;;9.37;;
42802;SDS011;28447;48.682;9.022;2023-04-06T17:11:01;11.20;;;7.97;;
42802;SDS011;28447;48.682;9.022;2023-04-06T17:13:26;10.93;;;7.80;;
42802;SDS011;28447;48.682;9.022;2023-04-06T17:15:52;12.63;;;8.20;;
42802;SDS011;28447;48.682;9.022;2023-04-06T17:18:18;14.67;;;9.07;;
42802;SDS011;28447;48.682;9.022;2023-04-06T17:20:44;13.00;;;8.70;;
42802;SDS011;28447;48.682;9.022;2023-04-06T17:23:10;13.73;;;8.10;;
42802;SDS011;28447;48.682;9.022;2023-04-06T17:25:36;9.70;;;6.70;;
42802;SDS011;28447;48.682;9.022;2023-04-06T17:28:02;11.93;;;7.43;;
42802;SDS011;28447;48.682;9.022;2023-04-06T17:30:28;7.87;;;6.33;;
42802;SDS011;28447;48.682;9.022;2023-04-06T17:32:53;10.30;;;6.40;;
42802;SDS011;28447;48.682;9.022;2023-04-06T17:35:19;10.80;;;6.60;;
42802;SDS011;28447;48.682;9.022;2023-04-06T17:37:45;10.67;;;6.63;;
42802;SDS011;28447;48.682;9.022;2023-04-06T17:40:12;9.77;;;6.27;;
42802;SDS011;28447;48.682;9.022;2023-04-06T17:42:37;11.60;;;6.30;;
42802;SDS011;28447;48.682;9.022;2023-04-06T17:45:03;9.37;;;6.20;;
42802;SDS011;28447;48.682;9.022;2023-04-06T17:47:29;9.97;;;6.10;;
42802;SDS011;28447;48.682;9.022;2023-04-06T17:49:58;10.67;;;6.10;;
42802;SDS011;28447;48.682;9.022;2023-04-06T17:52:25;10.57;;;6.50;;
42802;SDS011;28447;48.682;9.022;2023-04-06T17:54:51;7.43;;;5.90;;
42802;SDS011;28447;48.682;9.022;2023-04-06T17:57:17;7.87;;;5.23;;
42802;SDS011;28447;48.682;9.022;2023-04-06T17:59:43;7.00;;;5.00;;
42802;SDS011;28447;48.682;9.022;2023-04-06T18:02:08;9.00;;;5.50;;
42802;SDS011;28447;48.682;9.022;2023-04-06T18:04:35;9.60;;;6.23;;
42802;SDS011;28447;48.682;9.022;2023-04-06T18:07:01;9.20;;;6.23;;
42802;SDS011;28447;48.682;9.022;2023-04-06T18:09:29;10.17;;;6.03;;
42802;SDS011;28447;48.682;9.022;2023-04-06T18:11:55;7.40;;;5.83;;
42802;SDS011;28447;48.682;9.022;2023-04-06T18:14:21;12.70;;;7.00;;
42802;SDS011;28447;48.682;9.022;2023-04-06T18:16:47;8.07;;;5.80;;
42802;SDS011;28447;48.682;9.022;2023-04-06T18:19:13;10.40;;;6.90;;
42802;SDS011;28447;48.682;9.022;2023-04-06T18:21:39;9.93;;;5.83;;
42802;SDS011;28447;48.682;9.022;2023-04-06T18:24:05;10.33;;;6.60;;
42802;SDS011;28447;48.682;9.022;2023-04-06T18:26:31;10.20;;;6.17;;
42802;SDS011;28447;48.682;9.022;2023-04-06T18:28:57;8.23;;;5.37;;
42802;SDS011;28447;48.682;9.022;2023-04-06T18:31:22;10.17;;;5.57;;
42802;SDS011;28447;48.682;9.022;2023-04-06T18:33:48;6.87;;;5.07;;
42802;SDS011;28447;48.682;9.022;2023-04-06T18:36:14;9.37;;;6.13;;
42802;SDS011;28447;48.682;9.022;2023-04-06T18:38:43;8.87;;;6.03;;
42802;SDS011;28447;48.682;9.022;2023-04-06T18:41:10;5.90;;;4.43;;
42802;SDS011;28447;48.682;9.022;2023-04-06T18:43:38;7.30;;;4.70;;